aviador You're here:

VOCL Decoded Metar

CALICUT in INDIA
Report Time2017-08-23 04:00:00
UTC Time2017-08-23 04:17:12
Flight Rules mvfr MVFR
Wind340° at 05 kt
W.Decomp.*RWY 28: 2.3 kt HW 4.4 kt RCW
W.Rank340° ranks 13
Current wind is above 340° avg. (4.7)
Visibility7000 m
Phenomena:N/A
Clouds:Scattered 012 Hf
Expected CloudBase > 1,600 ft AGL from Temp-Dew spread
CeilingNone
Temp29°C (ISA +15)
Dew Point25°C (79% RH)
Heat Index34.5°C
QNH1009 hPa
Density Alt2,579 ft
Elevation341 ft
Report Wrong Elevation
Raw Report
METAR VOCL 230400Z 34005KT 7000 SCT012 29/25 Q1009 NOSIG=

Extra information for VOCL:More info

Metar Taf Metar & Taf Last 4 Metars F.Rules Stats Wind Profile Meteogram Temp Stats Airport Information Weather charts Add Link Nearby VenuesMetar ALERT Operation Metar Decoded Social comments